sensor_id;sensor_type;location;lat;lon;timestamp;pressure;altitude;pressure_sealevel;temperature;humidity
22335;BME280;11335;43.848;25.958;2022-08-11T00:00:10;101205.19;;;23.12;100.00
22335;BME280;11335;43.848;25.958;2022-08-11T00:03:03;101207.03;;;23.12;100.00
22335;BME280;11335;43.848;25.958;2022-08-11T00:05:53;101208.91;;;23.25;100.00
22335;BME280;11335;43.848;25.958;2022-08-11T00:08:41;101207.88;;;23.12;100.00
22335;BME280;11335;43.848;25.958;2022-08-11T00:11:36;101208.31;;;23.34;100.00
22335;BME280;11335;43.848;25.958;2022-08-11T00:14:25;101201.94;;;23.23;100.00
22335;BME280;11335;43.848;25.958;2022-08-11T00:17:13;101201.72;;;23.26;100.00
22335;BME280;11335;43.848;25.958;2022-08-11T00:20:03;101194.94;;;23.20;100.00
22335;BME280;11335;43.848;25.958;2022-08-11T00:22:49;101204.59;;;23.23;100.00
22335;BME280;11335;43.848;25.958;2022-08-11T00:25:40;101209.81;;;23.24;100.00
22335;BME280;11335;43.848;25.958;2022-08-11T00:28:32;101206.94;;;23.13;100.00
22335;BME280;11335;43.848;25.958;2022-08-11T00:31:36;101212.25;;;22.99;100.00
22335;BME280;11335;43.848;25.958;2022-08-11T00:34:31;101208.34;;;23.05;100.00
22335;BME280;11335;43.848;25.958;2022-08-11T00:37:19;101206.00;;;23.14;100.00
22335;BME280;11335;43.848;25.958;2022-08-11T00:40:13;101215.09;;;23.26;100.00
22335;BME280;11335;43.848;25.958;2022-08-11T00:46:17;101197.19;;;23.12;100.00
22335;BME280;11335;43.848;25.958;2022-08-11T00:58:38;101200.78;;;22.83;100.00
22335;BME280;11335;43.848;25.958;2022-08-11T01:01:56;101190.50;;;23.19;100.00
22335;BME280;11335;43.848;25.958;2022-08-11T01:14:14;101197.69;;;23.19;100.00
22335;BME280;11335;43.848;25.958;2022-08-11T01:55:18;101164.53;;;23.07;100.00
22335;BME280;11335;43.848;25.958;2022-08-11T01:58:35;101154.03;;;23.18;100.00
22335;BME280;11335;43.848;25.958;2022-08-11T02:01:37;101159.22;;;23.35;100.00
22335;BME280;11335;43.848;25.958;2022-08-11T02:07:54;101154.41;;;23.12;100.00
22335;BME280;11335;43.848;25.958;2022-08-11T02:10:55;101157.75;;;23.02;100.00
22335;BME280;11335;43.848;25.958;2022-08-11T02:17:52;101159.41;;;23.04;100.00
22335;BME280;11335;43.848;25.958;2022-08-11T02:24:02;101160.53;;;23.00;100.00
22335;BME280;11335;43.848;25.958;2022-08-11T02:27:18;101161.78;;;22.95;100.00
22335;BME280;11335;43.848;25.958;2022-08-11T02:30:09;101165.47;;;22.78;100.00
22335;BME280;11335;43.848;25.958;2022-08-11T02:36:41;101169.84;;;22.79;100.00
22335;BME280;11335;43.848;25.958;2022-08-11T02:46:03;101169.53;;;22.40;100.00
22335;BME280;11335;43.848;25.958;2022-08-11T02:55:29;101169.34;;;22.59;100.00
22335;BME280;11335;43.848;25.958;2022-08-11T02:58:29;101166.63;;;22.88;100.00
22335;BME280;11335;43.848;25.958;2022-08-11T03:01:22;101165.88;;;23.00;100.00
22335;BME280;11335;43.848;25.958;2022-08-11T03:04:19;101173.81;;;23.30;100.00
22335;BME280;11335;43.848;25.958;2022-08-11T03:07:16;101174.75;;;22.87;100.00
22335;BME280;11335;43.848;25.958;2022-08-11T03:10:25;101179.78;;;22.77;100.00
22335;BME280;11335;43.848;25.958;2022-08-11T03:13:22;101178.34;;;22.72;100.00
22335;BME280;11335;43.848;25.958;2022-08-11T03:16:45;101188.25;;;22.70;100.00
22335;BME280;11335;43.848;25.958;2022-08-11T03:19:47;101183.53;;;22.59;100.00
22335;BME280;11335;43.848;25.958;2022-08-11T03:23:03;101182.50;;;22.17;100.00
22335;BME280;11335;43.848;25.958;2022-08-11T03:26:12;101192.38;;;22.30;100.00
22335;BME280;11335;43.848;25.958;2022-08-11T03:29:13;101199.50;;;22.00;100.00
22335;BME280;11335;43.848;25.958;2022-08-11T03:32:06;101195.84;;;22.32;100.00
22335;BME280;11335;43.848;25.958;2022-08-11T03:34:56;101189.16;;;22.39;100.00
22335;BME280;11335;43.848;25.958;2022-08-11T03:37:52;101189.78;;;22.44;100.00
22335;BME280;11335;43.848;25.958;2022-08-11T03:41:20;101195.13;;;22.44;100.00
22335;BME280;11335;43.848;25.958;2022-08-11T03:47:44;101201.25;;;22.31;100.00
22335;BME280;11335;43.848;25.958;2022-08-11T03:53:55;101199.63;;;22.28;100.00
22335;BME280;11335;43.848;25.958;2022-08-11T03:57:19;101190.63;;;22.45;100.00
22335;BME280;11335;43.848;25.958;2022-08-11T04:04:06;101193.16;;;22.32;100.00
22335;BME280;11335;43.848;25.958;2022-08-11T04:10:27;101193.16;;;22.32;100.00
22335;BME280;11335;43.848;25.958;2022-08-11T04:16:46;101198.41;;;22.34;100.00
22335;BME280;11335;43.848;25.958;2022-08-11T04:29:38;101201.66;;;22.54;100.00
22335;BME280;11335;43.848;25.958;2022-08-11T04:45:46;101216.97;;;22.66;100.00
22335;BME280;11335;43.848;25.958;2022-08-11T04:48:57;101221.47;;;22.50;100.00
22335;BME280;11335;43.848;25.958;2022-08-11T05:08:53;101224.06;;;23.25;100.00
22335;BME280;11335;43.848;25.958;2022-08-11T05:14:38;101219.88;;;23.35;100.00
22335;BME280;11335;43.848;25.958;2022-08-11T05:17:58;101218.63;;;23.40;100.00
22335;BME280;11335;43.848;25.958;2022-08-11T05:21:07;101224.78;;;23.83;100.00
22335;BME280;11335;43.848;25.958;2022-08-11T05:24:19;101223.16;;;24.09;100.00
22335;BME280;11335;43.848;25.958;2022-08-11T05:27:32;101231.00;;;24.12;100.00
22335;BME280;11335;43.848;25.958;2022-08-11T05:30:40;101228.75;;;24.32;100.00
22335;BME280;11335;43.848;25.958;2022-08-11T05:33:50;101227.59;;;24.75;100.00
22335;BME280;11335;43.848;25.958;2022-08-11T05:37:07;101227.78;;;23.93;100.00
22335;BME280;11335;43.848;25.958;2022-08-11T05:40:00;101227.59;;;23.96;100.00
22335;BME280;11335;43.848;25.958;2022-08-11T05:43:11;101226.88;;;24.59;100.00
22335;BME280;11335;43.848;25.958;2022-08-11T05:46:16;101212.41;;;24.49;100.00
22335;BME280;11335;43.848;25.958;2022-08-11T05:49:22;101225.88;;;24.48;100.00
22335;BME280;11335;43.848;25.958;2022-08-11T05:52:28;101222.75;;;24.15;100.00
22335;BME280;11335;43.848;25.958;2022-08-11T05:55:38;101218.41;;;24.53;100.00
22335;BME280;11335;43.848;25.958;2022-08-11T05:58:46;101218.13;;;24.31;100.00
22335;BME280;11335;43.848;25.958;2022-08-11T06:01:33;101229.84;;;24.16;100.00
22335;BME280;11335;43.848;25.958;2022-08-11T06:04:22;101216.28;;;24.31;100.00
22335;BME280;11335;43.848;25.958;2022-08-11T06:07:10;101221.72;;;24.83;100.00
22335;BME280;11335;43.848;25.958;2022-08-11T06:09:58;101220.00;;;24.82;100.00
22335;BME280;11335;43.848;25.958;2022-08-11T06:12:44;101226.16;;;24.96;100.00
22335;BME280;11335;43.848;25.958;2022-08-11T06:15:48;101218.56;;;25.40;99.75
22335;BME280;11335;43.848;25.958;2022-08-11T06:18:38;101220.66;;;25.73;98.48
22335;BME280;11335;43.848;25.958;2022-08-11T06:21:25;101220.06;;;25.32;100.00
22335;BME280;11335;43.848;25.958;2022-08-11T06:24:14;101217.88;;;25.62;99.45
22335;BME280;11335;43.848;25.958;2022-08-11T06:27:02;101217.19;;;25.83;98.09
22335;BME280;11335;43.848;25.958;2022-08-11T06:29:50;101213.81;;;25.69;100.00
22335;BME280;11335;43.848;25.958;2022-08-11T06:32:36;101209.03;;;25.85;99.95
22335;BME280;11335;43.848;25.958;2022-08-11T06:38:26;101208.34;;;25.08;100.00
22335;BME280;11335;43.848;25.958;2022-08-11T06:41:24;101209.50;;;24.79;100.00
22335;BME280;11335;43.848;25.958;2022-08-11T06:44:23;101205.66;;;24.56;100.00
22335;BME280;11335;43.848;25.958;2022-08-11T06:47:14;101210.25;;;24.81;100.00
22335;BME280;11335;43.848;25.958;2022-08-11T06:50:05;101200.94;;;24.86;100.00
22335;BME280;11335;43.848;25.958;2022-08-11T06:53:10;101204.34;;;24.76;100.00
22335;BME280;11335;43.848;25.958;2022-08-11T06:55:57;101213.44;;;24.73;100.00
22335;BME280;11335;43.848;25.958;2022-08-11T06:59:02;101206.31;;;24.99;100.00
22335;BME280;11335;43.848;25.958;2022-08-11T07:11:54;101206.84;;;25.66;97.59
22335;BME280;11335;43.848;25.958;2022-08-11T07:15:05;101210.19;;;25.32;98.18
22335;BME280;11335;43.848;25.958;2022-08-11T07:18:40;101196.22;;;25.02;99.15
22335;BME280;11335;43.848;25.958;2022-08-11T07:21:46;101204.34;;;25.76;95.92
22335;BME280;11335;43.848;25.958;2022-08-11T07:24:58;101205.16;;;25.89;95.90
22335;BME280;11335;43.848;25.958;2022-08-11T07:28:17;101195.91;;;25.93;93.50
22335;BME280;11335;43.848;25.958;2022-08-11T07:34:33;101205.53;;;26.55;89.34
22335;BME280;11335;43.848;25.958;2022-08-11T07:37:22;101202.66;;;26.58;89.54
22335;BME280;11335;43.848;25.958;2022-08-11T07:40:10;101207.66;;;27.08;86.87
22335;BME280;11335;43.848;25.958;2022-08-11T07:42:58;101199.03;;;26.70;87.65
22335;BME280;11335;43.848;25.958;2022-08-11T07:45:45;101198.16;;;26.58;88.43
22335;BME280;11335;43.848;25.958;2022-08-11T07:48:54;101200.56;;;26.96;84.19
22335;BME280;11335;43.848;25.958;2022-08-11T07:51:59;101198.81;;;27.40;82.04
22335;BME280;11335;43.848;25.958;2022-08-11T07:55:15;101199.69;;;27.63;81.22
22335;BME280;11335;43.848;25.958;2022-08-11T07:58:02;101195.66;;;26.90;83.83
22335;BME280;11335;43.848;25.958;2022-08-11T08:01:06;101195.22;;;27.18;82.45
22335;BME280;11335;43.848;25.958;2022-08-11T08:04:20;101195.50;;;27.70;79.25
22335;BME280;11335;43.848;25.958;2022-08-11T08:07:25;101189.03;;;27.84;72.07
22335;BME280;11335;43.848;25.958;2022-08-11T08:10:32;101190.00;;;27.83;72.00
22335;BME280;11335;43.848;25.958;2022-08-11T08:13:37;101182.78;;;28.26;71.21
22335;BME280;11335;43.848;25.958;2022-08-11T08:16:42;101186.75;;;28.53;68.14
22335;BME280;11335;43.848;25.958;2022-08-11T08:19:48;101189.34;;;28.75;67.83
22335;BME280;11335;43.848;25.958;2022-08-11T08:22:35;101182.50;;;29.12;64.43
22335;BME280;11335;43.848;25.958;2022-08-11T08:25:26;101183.75;;;29.29;62.54
22335;BME280;11335;43.848;25.958;2022-08-11T08:28:16;101190.06;;;29.78;60.84
22335;BME280;11335;43.848;25.958;2022-08-11T08:31:05;101180.84;;;29.51;59.06
22335;BME280;11335;43.848;25.958;2022-08-11T08:33:50;101183.97;;;29.16;60.31
22335;BME280;11335;43.848;25.958;2022-08-11T08:36:39;101177.63;;;29.57;60.51
22335;BME280;11335;43.848;25.958;2022-08-11T08:39:27;101183.81;;;30.17;60.09
22335;BME280;11335;43.848;25.958;2022-08-11T08:42:19;101185.63;;;29.38;59.94
22335;BME280;11335;43.848;25.958;2022-08-11T08:45:08;101174.78;;;29.58;58.28
22335;BME280;11335;43.848;25.958;2022-08-11T08:48:00;101176.63;;;30.07;57.41
22335;BME280;11335;43.848;25.958;2022-08-11T08:50:52;101179.84;;;29.72;57.46
22335;BME280;11335;43.848;25.958;2022-08-11T08:54:04;101157.69;;;29.48;57.75
22335;BME280;11335;43.848;25.958;2022-08-11T08:56:54;101169.66;;;28.43;58.75
22335;BME280;11335;43.848;25.958;2022-08-11T08:59:43;101176.94;;;28.21;60.95
22335;BME280;11335;43.848;25.958;2022-08-11T09:02:30;101170.69;;;29.34;58.39
22335;BME280;11335;43.848;25.958;2022-08-11T09:05:17;101161.63;;;28.94;58.10
22335;BME280;11335;43.848;25.958;2022-08-11T09:08:03;101169.59;;;29.16;59.28
22335;BME280;11335;43.848;25.958;2022-08-11T09:10:54;101163.59;;;29.33;57.95
22335;BME280;11335;43.848;25.958;2022-08-11T09:14:00;101159.66;;;29.76;58.87
22335;BME280;11335;43.848;25.958;2022-08-11T09:16:51;101147.19;;;30.13;55.67
22335;BME280;11335;43.848;25.958;2022-08-11T09:19:44;101154.59;;;30.11;54.92
22335;BME280;11335;43.848;25.958;2022-08-11T09:22:55;101157.50;;;29.40;58.27
22335;BME280;11335;43.848;25.958;2022-08-11T09:26:01;101155.69;;;29.80;55.88
22335;BME280;11335;43.848;25.958;2022-08-11T09:29:07;101151.44;;;30.06;54.49
22335;BME280;11335;43.848;25.958;2022-08-11T09:31:55;101139.84;;;30.15;55.53
22335;BME280;11335;43.848;25.958;2022-08-11T09:34:41;101137.44;;;30.22;55.02
22335;BME280;11335;43.848;25.958;2022-08-11T09:37:29;101134.63;;;29.84;56.40
22335;BME280;11335;43.848;25.958;2022-08-11T09:40:53;101147.34;;;30.88;52.66
22335;BME280;11335;43.848;25.958;2022-08-11T09:43:42;101145.84;;;29.40;56.08
22335;BME280;11335;43.848;25.958;2022-08-11T09:46:48;101134.00;;;30.20;54.38
22335;BME280;11335;43.848;25.958;2022-08-11T09:49:36;101139.09;;;30.80;53.09
22335;BME280;11335;43.848;25.958;2022-08-11T09:52:22;101129.53;;;30.00;53.58
22335;BME280;11335;43.848;25.958;2022-08-11T09:55:09;101125.41;;;29.96;54.06
22335;BME280;11335;43.848;25.958;2022-08-11T09:57:59;101124.31;;;30.17;53.62
22335;BME280;11335;43.848;25.958;2022-08-11T10:01:03;101136.25;;;30.62;51.79
22335;BME280;11335;43.848;25.958;2022-08-11T10:04:00;101122.97;;;29.34;53.95
22335;BME280;11335;43.848;25.958;2022-08-11T10:06:49;101113.47;;;30.08;52.31
22335;BME280;11335;43.848;25.958;2022-08-11T10:09:51;101125.44;;;30.72;51.56
22335;BME280;11335;43.848;25.958;2022-08-11T10:12:44;101131.00;;;30.70;50.94
22335;BME280;11335;43.848;25.958;2022-08-11T10:15:32;101127.44;;;30.51;51.18
22335;BME280;11335;43.848;25.958;2022-08-11T10:18:43;101129.59;;;31.22;49.69
22335;BME280;11335;43.848;25.958;2022-08-11T10:21:45;101125.44;;;30.72;50.54
22335;BME280;11335;43.848;25.958;2022-08-11T10:24:52;101122.56;;;30.64;52.15
22335;BME280;11335;43.848;25.958;2022-08-11T10:27:57;101118.19;;;30.72;51.68
22335;BME280;11335;43.848;25.958;2022-08-11T10:30:45;101123.47;;;30.36;52.94
22335;BME280;11335;43.848;25.958;2022-08-11T10:33:50;101117.91;;;30.75;50.61
22335;BME280;11335;43.848;25.958;2022-08-11T10:36:48;101111.50;;;30.76;49.75
22335;BME280;11335;43.848;25.958;2022-08-11T10:39:34;101118.56;;;30.96;50.14
22335;BME280;11335;43.848;25.958;2022-08-11T10:42:22;101117.50;;;30.32;49.55
22335;BME280;11335;43.848;25.958;2022-08-11T10:45:35;101114.38;;;30.27;51.86
22335;BME280;11335;43.848;25.958;2022-08-11T10:48:39;101114.88;;;29.74;52.51
22335;BME280;11335;43.848;25.958;2022-08-11T10:51:26;101108.38;;;30.05;53.70
22335;BME280;11335;43.848;25.958;2022-08-11T10:54:32;101108.53;;;30.32;52.85
22335;BME280;11335;43.848;25.958;2022-08-11T10:57:38;101097.69;;;30.32;52.08
22335;BME280;11335;43.848;25.958;2022-08-11T11:00:43;101098.97;;;29.99;52.77
22335;BME280;11335;43.848;25.958;2022-08-11T11:03:30;101096.84;;;30.12;52.09
22335;BME280;11335;43.848;25.958;2022-08-11T11:06:37;101093.25;;;30.02;52.89
22335;BME280;11335;43.848;25.958;2022-08-11T11:09:31;101091.56;;;30.01;56.42
22335;BME280;11335;43.848;25.958;2022-08-11T11:12:29;101094.22;;;29.82;55.04
22335;BME280;11335;43.848;25.958;2022-08-11T11:15:36;101100.81;;;29.40;54.94
22335;BME280;11335;43.848;25.958;2022-08-11T11:18:43;101100.69;;;29.51;53.70
22335;BME280;11335;43.848;25.958;2022-08-11T11:21:30;101086.88;;;29.94;53.41
22335;BME280;11335;43.848;25.958;2022-08-11T11:24:44;101086.47;;;30.46;52.24
22335;BME280;11335;43.848;25.958;2022-08-11T11:28:03;101090.41;;;29.75;53.31
22335;BME280;11335;43.848;25.958;2022-08-11T11:31:05;101080.16;;;29.79;53.48
22335;BME280;11335;43.848;25.958;2022-08-11T11:37:01;101073.66;;;30.10;52.41
22335;BME280;11335;43.848;25.958;2022-08-11T11:39:51;101074.16;;;30.80;49.73
22335;BME280;11335;43.848;25.958;2022-08-11T11:42:43;101075.44;;;31.22;48.90
22335;BME280;11335;43.848;25.958;2022-08-11T11:45:30;101079.69;;;31.34;48.55
22335;BME280;11335;43.848;25.958;2022-08-11T11:48:16;101082.31;;;31.07;49.18
22335;BME280;11335;43.848;25.958;2022-08-11T11:51:02;101081.44;;;31.16;48.23
22335;BME280;11335;43.848;25.958;2022-08-11T11:53:50;101085.75;;;30.99;46.76
22335;BME280;11335;43.848;25.958;2022-08-11T11:56:36;101079.72;;;31.15;46.74
22335;BME280;11335;43.848;25.958;2022-08-11T11:59:24;101079.50;;;30.99;48.05
22335;BME280;11335;43.848;25.958;2022-08-11T12:02:30;101073.25;;;31.35;46.35
22335;BME280;11335;43.848;25.958;2022-08-11T12:05:17;101078.63;;;31.08;45.87
22335;BME280;11335;43.848;25.958;2022-08-11T12:08:04;101071.53;;;30.97;46.60
22335;BME280;11335;43.848;25.958;2022-08-11T12:11:01;101075.28;;;30.87;46.31
22335;BME280;11335;43.848;25.958;2022-08-11T12:14:06;101076.59;;;30.73;46.74
22335;BME280;11335;43.848;25.958;2022-08-11T12:16:55;101072.06;;;30.55;46.85
22335;BME280;11335;43.848;25.958;2022-08-11T12:19:41;101067.19;;;31.14;44.81
22335;BME280;11335;43.848;25.958;2022-08-11T12:22:28;101072.22;;;30.99;45.92
22335;BME280;11335;43.848;25.958;2022-08-11T12:25:34;101067.50;;;31.11;46.34
22335;BME280;11335;43.848;25.958;2022-08-11T12:28:38;101069.44;;;31.18;45.87
22335;BME280;11335;43.848;25.958;2022-08-11T12:31:24;101065.31;;;31.24;45.51
22335;BME280;11335;43.848;25.958;2022-08-11T12:34:12;101066.25;;;30.21;46.41
22335;BME280;11335;43.848;25.958;2022-08-11T12:37:00;101060.97;;;31.04;46.39
22335;BME280;11335;43.848;25.958;2022-08-11T12:39:52;101065.38;;;31.05;45.80
22335;BME280;11335;43.848;25.958;2022-08-11T12:43:02;101058.50;;;30.64;45.71
22335;BME280;11335;43.848;25.958;2022-08-11T12:46:11;101063.06;;;30.54;46.82
22335;BME280;11335;43.848;25.958;2022-08-11T12:49:04;101056.53;;;30.57;46.23
22335;BME280;11335;43.848;25.958;2022-08-11T12:52:21;101052.97;;;30.56;46.62
22335;BME280;11335;43.848;25.958;2022-08-11T12:55:11;101051.69;;;31.06;46.47
22335;BME280;11335;43.848;25.958;2022-08-11T12:57:58;101050.03;;;30.96;46.51
22335;BME280;11335;43.848;25.958;2022-08-11T13:01:02;101047.78;;;31.18;46.30
22335;BME280;11335;43.848;25.958;2022-08-11T13:04:06;101047.47;;;31.21;45.37
22335;BME280;11335;43.848;25.958;2022-08-11T13:07:11;101045.53;;;30.68;46.67
22335;BME280;11335;43.848;25.958;2022-08-11T13:10:00;101049.03;;;30.87;46.81
22335;BME280;11335;43.848;25.958;2022-08-11T13:12:46;101045.63;;;30.95;45.81
22335;BME280;11335;43.848;25.958;2022-08-11T13:15:33;101041.16;;;30.57;47.29
22335;BME280;11335;43.848;25.958;2022-08-11T13:18:21;101046.72;;;30.46;47.51
22335;BME280;11335;43.848;25.958;2022-08-11T13:21:11;101037.00;;;31.09;47.54
22335;BME280;11335;43.848;25.958;2022-08-11T13:23:57;101040.06;;;30.12;47.74
22335;BME280;11335;43.848;25.958;2022-08-11T13:26:45;101036.88;;;30.55;47.37
22335;BME280;11335;43.848;25.958;2022-08-11T13:29:33;101032.53;;;30.90;45.93
22335;BME280;11335;43.848;25.958;2022-08-11T13:32:20;101018.53;;;31.49;44.82
22335;BME280;11335;43.848;25.958;2022-08-11T13:35:14;101025.53;;;31.69;45.36
22335;BME280;11335;43.848;25.958;2022-08-11T13:38:01;101019.91;;;31.08;46.47
22335;BME280;11335;43.848;25.958;2022-08-11T13:40:48;101023.94;;;31.31;47.28
22335;BME280;11335;43.848;25.958;2022-08-11T13:43:36;101023.84;;;31.23;47.27
22335;BME280;11335;43.848;25.958;2022-08-11T13:46:23;101031.41;;;30.83;46.36
22335;BME280;11335;43.848;25.958;2022-08-11T13:49:10;101014.41;;;31.00;45.44
22335;BME280;11335;43.848;25.958;2022-08-11T13:51:59;101011.50;;;30.75;46.81
22335;BME280;11335;43.848;25.958;2022-08-11T13:54:46;101021.84;;;30.43;48.78
22335;BME280;11335;43.848;25.958;2022-08-11T13:57:33;101017.31;;;30.05;48.39
22335;BME280;11335;43.848;25.958;2022-08-11T14:00:20;101013.31;;;30.28;48.58
22335;BME280;11335;43.848;25.958;2022-08-11T14:03:08;101018.16;;;29.77;49.46
22335;BME280;11335;43.848;25.958;2022-08-11T14:05:59;101019.44;;;29.92;48.57
22335;BME280;11335;43.848;25.958;2022-08-11T14:08:48;101016.47;;;30.14;49.42
22335;BME280;11335;43.848;25.958;2022-08-11T14:11:38;101017.44;;;30.32;47.55
22335;BME280;11335;43.848;25.958;2022-08-11T14:14:48;101018.44;;;30.03;48.72
22335;BME280;11335;43.848;25.958;2022-08-11T14:17:38;101011.47;;;30.29;47.56
22335;BME280;11335;43.848;25.958;2022-08-11T14:20:27;101019.00;;;30.25;48.02
22335;BME280;11335;43.848;25.958;2022-08-11T14:23:42;101010.91;;;30.16;47.67
22335;BME280;11335;43.848;25.958;2022-08-11T14:26:30;101013.59;;;30.06;47.58
22335;BME280;11335;43.848;25.958;2022-08-11T14:29:25;101012.03;;;29.94;50.79
22335;BME280;11335;43.848;25.958;2022-08-11T14:32:13;101014.75;;;29.75;53.50
22335;BME280;11335;43.848;25.958;2022-08-11T14:34:59;101005.22;;;30.00;53.83
22335;BME280;11335;43.848;25.958;2022-08-11T14:37:49;101016.75;;;30.02;55.13
22335;BME280;11335;43.848;25.958;2022-08-11T14:40:35;101003.50;;;29.70;57.30
22335;BME280;11335;43.848;25.958;2022-08-11T14:43:39;101009.91;;;29.69;56.99
22335;BME280;11335;43.848;25.958;2022-08-11T14:46:44;101008.47;;;30.22;54.24
22335;BME280;11335;43.848;25.958;2022-08-11T14:49:49;101001.41;;;29.74;53.92
22335;BME280;11335;43.848;25.958;2022-08-11T14:52:37;101013.47;;;29.70;53.98
22335;BME280;11335;43.848;25.958;2022-08-11T14:55:25;101005.03;;;29.44;53.88
22335;BME280;11335;43.848;25.958;2022-08-11T14:58:31;101009.63;;;29.72;52.54
22335;BME280;11335;43.848;25.958;2022-08-11T15:01:18;101005.22;;;29.90;51.68
22335;BME280;11335;43.848;25.958;2022-08-11T15:04:23;101004.50;;;29.69;51.74
22335;BME280;11335;43.848;25.958;2022-08-11T15:07:10;100998.56;;;29.75;54.22
22335;BME280;11335;43.848;25.958;2022-08-11T15:10:01;100998.84;;;29.91;54.35
22335;BME280;11335;43.848;25.958;2022-08-11T15:12:49;100993.69;;;29.60;51.66
22335;BME280;11335;43.848;25.958;2022-08-11T15:15:36;100989.53;;;29.56;52.29
22335;BME280;11335;43.848;25.958;2022-08-11T15:18:40;100987.75;;;29.75;51.86
22335;BME280;11335;43.848;25.958;2022-08-11T15:21:26;100988.59;;;29.76;51.34
22335;BME280;11335;43.848;25.958;2022-08-11T15:24:31;100984.19;;;29.75;52.79
22335;BME280;11335;43.848;25.958;2022-08-11T15:27:19;100991.41;;;29.74;54.14
22335;BME280;11335;43.848;25.958;2022-08-11T15:30:25;100976.50;;;29.70;55.66
22335;BME280;11335;43.848;25.958;2022-08-11T15:33:30;100981.91;;;29.70;54.48
22335;BME280;11335;43.848;25.958;2022-08-11T15:36:36;100971.69;;;29.64;53.80
22335;BME280;11335;43.848;25.958;2022-08-11T15:43:15;100966.00;;;29.58;52.99
22335;BME280;11335;43.848;25.958;2022-08-11T15:49:36;100969.38;;;29.88;54.07
22335;BME280;11335;43.848;25.958;2022-08-11T15:52:29;100966.38;;;29.53;56.30
22335;BME280;11335;43.848;25.958;2022-08-11T15:55:17;100970.63;;;29.37;57.66
22335;BME280;11335;43.848;25.958;2022-08-11T15:58:07;100957.66;;;29.21;58.50
22335;BME280;11335;43.848;25.958;2022-08-11T16:01:13;100957.97;;;29.28;59.85
22335;BME280;11335;43.848;25.958;2022-08-11T16:04:24;100956.22;;;29.17;60.32
22335;BME280;11335;43.848;25.958;2022-08-11T16:07:14;100957.25;;;29.26;59.98
22335;BME280;11335;43.848;25.958;2022-08-11T16:10:11;100958.41;;;29.23;59.98
22335;BME280;11335;43.848;25.958;2022-08-11T16:13:05;100967.34;;;29.43;58.47
22335;BME280;11335;43.848;25.958;2022-08-11T16:15:54;100961.09;;;29.52;58.14
22335;BME280;11335;43.848;25.958;2022-08-11T16:19:00;100965.94;;;29.39;59.20
22335;BME280;11335;43.848;25.958;2022-08-11T16:21:50;100959.94;;;29.16;58.82
22335;BME280;11335;43.848;25.958;2022-08-11T16:24:40;100958.41;;;28.93;60.66
22335;BME280;11335;43.848;25.958;2022-08-11T16:27:31;100961.66;;;29.27;58.64
22335;BME280;11335;43.848;25.958;2022-08-11T16:30:18;100948.22;;;28.97;60.60
22335;BME280;11335;43.848;25.958;2022-08-11T16:33:05;100952.41;;;29.10;59.97
22335;BME280;11335;43.848;25.958;2022-08-11T16:35:51;100955.72;;;28.93;61.50
22335;BME280;11335;43.848;25.958;2022-08-11T16:38:57;100956.44;;;28.95;62.17
22335;BME280;11335;43.848;25.958;2022-08-11T16:41:45;100958.09;;;29.17;61.45
22335;BME280;11335;43.848;25.958;2022-08-11T16:44:51;100959.72;;;28.99;60.23
22335;BME280;11335;43.848;25.958;2022-08-11T16:47:57;100962.59;;;29.07;58.77
22335;BME280;11335;43.848;25.958;2022-08-11T16:50:44;100964.25;;;28.89;59.29
22335;BME280;11335;43.848;25.958;2022-08-11T16:53:30;100965.97;;;28.99;58.76
22335;BME280;11335;43.848;25.958;2022-08-11T16:57:08;100973.97;;;29.01;57.67
22335;BME280;11335;43.848;25.958;2022-08-11T16:59:36;100968.25;;;28.94;58.05
22335;BME280;11335;43.848;25.958;2022-08-11T17:02:24;100965.69;;;28.93;58.00
22335;BME280;11335;43.848;25.958;2022-08-11T17:05:50;100973.00;;;28.81;58.45
22335;BME280;11335;43.848;25.958;2022-08-11T17:08:57;100970.25;;;28.62;59.52
22335;BME280;11335;43.848;25.958;2022-08-11T17:12:02;100973.81;;;28.72;59.71
22335;BME280;11335;43.848;25.958;2022-08-11T17:15:17;100970.50;;;28.59;59.34
22335;BME280;11335;43.848;25.958;2022-08-11T17:18:23;100978.34;;;28.62;60.11
22335;BME280;11335;43.848;25.958;2022-08-11T17:21:35;100985.69;;;28.60;59.79
22335;BME280;11335;43.848;25.958;2022-08-11T17:24:46;100977.56;;;28.30;61.88
22335;BME280;11335;43.848;25.958;2022-08-11T17:27:35;100987.16;;;28.23;62.43
22335;BME280;11335;43.848;25.958;2022-08-11T17:30:31;100995.41;;;28.42;61.35
22335;BME280;11335;43.848;25.958;2022-08-11T17:33:36;100994.06;;;28.16;62.87
22335;BME280;11335;43.848;25.958;2022-08-11T17:36:41;100993.81;;;28.40;61.72
22335;BME280;11335;43.848;25.958;2022-08-11T17:39:30;100991.25;;;28.18;63.51
22335;BME280;11335;43.848;25.958;2022-08-11T17:42:16;100989.72;;;28.04;65.36
22335;BME280;11335;43.848;25.958;2022-08-11T17:45:22;100995.03;;;27.95;67.08
22335;BME280;11335;43.848;25.958;2022-08-11T17:48:29;100995.84;;;28.06;67.02
22335;BME280;11335;43.848;25.958;2022-08-11T17:51:19;100998.75;;;28.14;66.81
22335;BME280;11335;43.848;25.958;2022-08-11T17:54:24;100994.91;;;27.96;68.32
22335;BME280;11335;43.848;25.958;2022-08-11T17:57:29;101000.03;;;27.99;68.88
22335;BME280;11335;43.848;25.958;2022-08-11T18:00:34;101006.47;;;27.76;71.11
22335;BME280;11335;43.848;25.958;2022-08-11T18:03:21;101001.34;;;27.84;71.61